Rincon, GA (31326)

4:48 PM EST on February 07, 2016 (GMT -0500)
Rice Hope Plantation | | Change Station
CLOSE
Current Station
Personal Weather Station
Location: Port Wentworth, GA
Elevation: 30 ft
Nearby Weather Stations
Active Advisory: Flood Warning

Elev 30 ft 32.23 °N, 81.19 °W | Updated 5 minutes ago

Partly Cloudy
Partly Cloudy
53.4 °F
Feels Like 53.4 °F
N
0.0
Wind Variable Wind from NW
Gusts 6.0 mph

Today
High -- | Low -- °F
--% Chance of Precip.
Yesterday
High -- | Low -- °F
Precip. -- in
Pressure 29.94 in
Visibility 10.0 miles
Clouds Scattered Clouds 25000 ft
Dew Point 32 °F
Humidity 45%
Rainfall 0.67 in
Snow Depth Not available.
7:14 AM 6:03 PM
Waning Crescent, 1% visible
METAR KSAV 072053Z 35012KT 10SM SCT250 12/M04 A2994 RMK AO2 PK WND 33026/1954 SLP139 T01221039 58012
Pressure 29.94 in
Visibility 10.0 miles
Clouds Scattered Clouds 25000 ft
Dew Point 32 °F
Humidity 45%
Rainfall 0.67 in
Snow Depth Not available.
7:14 AM 6:03 PM
Waning Crescent, 1% visible
METAR KSAV 072053Z 35012KT 10SM SCT250 12/M04 A2994 RMK AO2 PK WND 33026/1954 SLP139 T01221039 58012

10-Day Weather Forecast

Almanac

Astronomy

Feb. 07, 2016 Rise Set
Actual Time
Civil Twilight
Nautical Twilight
Astronomical Twilight
Moon
Length of Visible Light
Length of Day
Tomorrow will be .
, % of the Moon is Illuminated

Today's Extremes

State Highs State Lows

Community

WunderPhotos

Upload Photos

1,891,304 photos uploaded!

WunderBlog® & News

Nearby

Air Quality

  Air Quality AQ Index Pollutant
Not available.

Snow Depth

Station Depth Elevation

Earthquake Activity

City Distance Mag. Time & Date
Minimum magnitude displayed is 2.5.

Coastal Water Temperatures

Place Temperature

Stations

Nearby Weather Stations

Station Location Temp. Windchill Dew Point Humidity Wind Precip. Elev Updated Type
                   

Watches & Warnings

Flood Warning
Issued: 10:35 AM EST Feb. 7, 2016 – National Weather Service

The Flood Warning continues for
the Ogeechee river near Eden.
* At 10 am Sunday the stage was 12.8 feet.
* Flood stage is 11.0 feet.
* Minor flooding is occurring.
* Forecast, the river will continue rising to near 13.4 feet by
Wednesday morning. Additional rises may be possible thereafter.
* At 14.0 feet, several homes and camps near the river are surrounded
by water.


Lat... Lon 3246 8160 3252 8152 3227 8140 3208 8133
          3206 8143 3223 8150




1035 am EST sun Feb 7 2016

The Flood Warning continues for
the Savannah River near Clyo.
* At 10 am Sunday the stage was 16.3 feet.
* Flood stage is 11.0 feet.
* Moderate flooding is occurring.
* Forecast, the river will continue to fall.
* At 14.5 feet, the bottom floor of several riverfront homes along Tom
goethe Road begins to flood.


Lat... Lon 3273 8145 3276 8137 3264 8136 3249 8117
          3246 8125 3261 8144